AEE218 LIMC-ENGM
Flight info
| Callsign | AEE218 |
|---|---|
| Flight time | 2h 37m |
| Altitude | 34000 |
| Route | PEPAG DCT ABESI N851 ROLSA/N0452F350 DCT LOKTA DCT TIKNI N746 KENIG DCT EMBOX/N0449F360 DCT BUMIL DCT GITER DCT RETKA Z137 PIPEX/N0446F370 M609 RIPAM |
| Aircraft | B738/M-SDE2E3FGHIRWXY/LB1 |
Departure
| Time | 2026-04-30 08:22 |
|---|---|
| Airport | Milan Malpensa International Airport (LIMC) |
Arrival
| Time | 2026-04-30 10:59 |
|---|---|
| Airport | Oslo-Gardermoen International Airport (ENGM) |
| Time | Latitude | Longitude | Altitude | Speed | Heading |
|---|---|---|---|---|---|
| 2026-04-30 08:04 | 45.61563 | 8.71994 | 752 ft | 0 kts | 259° |
| 2026-04-30 08:10 | 45.61563 | 8.71996 | 752 ft | 2 kts | 259° |
| 2026-04-30 08:10 | 45.61569 | 8.72031 | 751 ft | 4 kts | 254° |
| 2026-04-30 08:11 | 45.61574 | 8.72056 | 748 ft | 4 kts | 249° |
| 2026-04-30 08:11 | 45.61585 | 8.72091 | 750 ft | 4 kts | 236° |
| 2026-04-30 08:11 | 45.61609 | 8.72118 | 750 ft | 3 kts | 172° |
| 2026-04-30 08:11 | 45.61616 | 8.72117 | 749 ft | 0 kts | 169° |
| 2026-04-30 08:14 | 45.61552 | 8.72134 | 750 ft | 16 kts | 169° |
| 2026-04-30 08:14 | 45.61446 | 8.72165 | 751 ft | 15 kts | 168° |
| 2026-04-30 08:15 | 45.61344 | 8.72194 | 751 ft | 15 kts | 169° |
| 2026-04-30 08:15 | 45.61246 | 8.72221 | 751 ft | 14 kts | 169° |
| 2026-04-30 08:15 | 45.61153 | 8.72247 | 752 ft | 13 kts | 168° |
| 2026-04-30 08:15 | 45.61029 | 8.72280 | 749 ft | 20 kts | 170° |
| 2026-04-30 08:16 | 45.60897 | 8.72314 | 751 ft | 19 kts | 169° |
| 2026-04-30 08:16 | 45.60770 | 8.72350 | 752 ft | 18 kts | 168° |
| 2026-04-30 08:16 | 45.60658 | 8.72420 | 752 ft | 18 kts | 127° |
| 2026-04-30 08:16 | 45.60631 | 8.72584 | 752 ft | 17 kts | 96° |
| 2026-04-30 08:17 | 45.60619 | 8.72754 | 752 ft | 17 kts | 96° |
| 2026-04-30 08:17 | 45.60607 | 8.72923 | 749 ft | 17 kts | 96° |
| 2026-04-30 08:17 | 45.60594 | 8.73107 | 751 ft | 20 kts | 96° |
| 2026-04-30 08:17 | 45.60645 | 8.73274 | 751 ft | 19 kts | 30° |
| 2026-04-30 08:18 | 45.60768 | 8.73346 | 751 ft | 19 kts | 22° |
| 2026-04-30 08:18 | 45.60889 | 8.73406 | 752 ft | 18 kts | 2° |
| 2026-04-30 08:18 | 45.61011 | 8.73376 | 751 ft | 18 kts | 349° |
| 2026-04-30 08:18 | 45.61098 | 8.73351 | 749 ft | 11 kts | 349° |
| 2026-04-30 08:19 | 45.61173 | 8.73331 | 752 ft | 11 kts | 349° |
| 2026-04-30 08:19 | 45.61244 | 8.73312 | 748 ft | 10 kts | 349° |
| 2026-04-30 08:19 | 45.61324 | 8.73290 | 752 ft | 16 kts | 349° |
| 2026-04-30 08:19 | 45.61438 | 8.73258 | 750 ft | 17 kts | 349° |
| 2026-04-30 08:20 | 45.61552 | 8.73228 | 751 ft | 16 kts | 349° |
| 2026-04-30 08:20 | 45.61622 | 8.73321 | 749 ft | 16 kts | 79° |
| 2026-04-30 08:20 | 45.61612 | 8.73469 | 750 ft | 15 kts | 117° |
| 2026-04-30 08:20 | 45.61586 | 8.73610 | 749 ft | 15 kts | 88° |
| 2026-04-30 08:21 | 45.61646 | 8.73720 | 744 ft | 16 kts | 360° |
| 2026-04-30 08:21 | 45.61658 | 8.73718 | 744 ft | 0 kts | 349° |
| 2026-04-30 08:21 | 45.61707 | 8.73705 | 743 ft | 35 kts | 349° |
| 2026-04-30 08:21 | 45.62245 | 8.73563 | 743 ft | 120 kts | 349° |
| 2026-04-30 08:22 | 45.63300 | 8.73309 | 890 ft | 176 kts | 352° |
| 2026-04-30 08:22 | 45.64487 | 8.72997 | 1961 ft | 171 kts | 351° |
| 2026-04-30 08:22 | 45.65678 | 8.72814 | 2828 ft | 186 kts | 9° |
| 2026-04-30 08:22 | 45.66837 | 8.73672 | 3316 ft | 194 kts | 54° |
| 2026-04-30 08:23 | 45.67301 | 8.75440 | 3843 ft | 193 kts | 85° |
| 2026-04-30 08:23 | 45.67665 | 8.77293 | 4345 ft | 201 kts | 55° |
| 2026-04-30 08:23 | 45.68707 | 8.78663 | 4877 ft | 207 kts | 43° |
| 2026-04-30 08:23 | 45.69834 | 8.79978 | 5335 ft | 215 kts | 40° |
| 2026-04-30 08:24 | 45.71135 | 8.81257 | 5528 ft | 237 kts | 37° |
| 2026-04-30 08:24 | 45.72561 | 8.82583 | 5792 ft | 256 kts | 36° |
| 2026-04-30 08:24 | 45.74101 | 8.84011 | 6249 ft | 269 kts | 36° |
| 2026-04-30 08:24 | 45.75685 | 8.85484 | 6935 ft | 273 kts | 35° |
| 2026-04-30 08:25 | 45.77285 | 8.86981 | 7632 ft | 276 kts | 34° |
| 2026-04-30 08:25 | 45.78889 | 8.88491 | 8368 ft | 276 kts | 34° |
| 2026-04-30 08:25 | 45.80499 | 8.90012 | 9082 ft | 279 kts | 33° |
| 2026-04-30 08:25 | 45.82108 | 8.91537 | 9769 ft | 282 kts | 33° |
| 2026-04-30 08:26 | 45.83751 | 8.93098 | 10283 ft | 284 kts | 32° |
| 2026-04-30 08:26 | 45.85412 | 8.94678 | 10308 ft | 287 kts | 32° |
| 2026-04-30 08:26 | 45.87050 | 8.96241 | 10652 ft | 281 kts | 32° |
| 2026-04-30 08:26 | 45.88689 | 8.97806 | 10985 ft | 285 kts | 32° |
| 2026-04-30 08:27 | 45.90348 | 8.99390 | 11393 ft | 285 kts | 32° |
| 2026-04-30 08:27 | 45.92007 | 9.00976 | 11904 ft | 287 kts | 32° |
| 2026-04-30 08:27 | 45.93674 | 9.02570 | 12423 ft | 289 kts | 32° |
| 2026-04-30 08:27 | 45.95350 | 9.04174 | 12941 ft | 290 kts | 32° |
| 2026-04-30 08:28 | 45.97043 | 9.05740 | 13465 ft | 289 kts | 25° |
| 2026-04-30 08:28 | 45.98933 | 9.06654 | 13982 ft | 287 kts | 9° |
| 2026-04-30 08:28 | 46.00892 | 9.06793 | 14458 ft | 286 kts | 355° |
| 2026-04-30 08:28 | 46.02873 | 9.06492 | 14942 ft | 287 kts | 354° |
| 2026-04-30 08:29 | 46.04860 | 9.06141 | 15425 ft | 290 kts | 354° |
| 2026-04-30 08:29 | 46.06881 | 9.05786 | 15937 ft | 296 kts | 354° |
| 2026-04-30 08:29 | 46.08962 | 9.05435 | 16340 ft | 309 kts | 355° |
| 2026-04-30 08:29 | 46.11179 | 9.05074 | 16445 ft | 329 kts | 355° |
| 2026-04-30 08:30 | 46.13518 | 9.04699 | 16600 ft | 347 kts | 355° |
| 2026-04-30 08:30 | 46.15980 | 9.04306 | 16746 ft | 365 kts | 355° |
| 2026-04-30 08:30 | 46.18553 | 9.03931 | 17051 ft | 377 kts | 356° |
| 2026-04-30 08:30 | 46.21187 | 9.03578 | 17572 ft | 381 kts | 356° |
| 2026-04-30 08:31 | 46.23836 | 9.03229 | 18188 ft | 383 kts | 356° |
| 2026-04-30 08:31 | 46.26503 | 9.02877 | 18746 ft | 386 kts | 356° |
| 2026-04-30 08:31 | 46.29185 | 9.02518 | 19278 ft | 388 kts | 356° |
| 2026-04-30 08:31 | 46.31881 | 9.02154 | 19764 ft | 391 kts | 356° |
| 2026-04-30 08:32 | 46.34609 | 9.01784 | 20208 ft | 395 kts | 356° |
| 2026-04-30 08:32 | 46.37350 | 9.01412 | 20706 ft | 397 kts | 356° |
| 2026-04-30 08:32 | 46.40080 | 9.01040 | 21186 ft | 399 kts | 356° |
| 2026-04-30 08:32 | 46.42850 | 9.00666 | 21605 ft | 402 kts | 356° |
| 2026-04-30 08:33 | 46.45649 | 9.00291 | 21999 ft | 406 kts | 356° |
| 2026-04-30 08:33 | 46.48474 | 8.99913 | 22471 ft | 408 kts | 356° |
| 2026-04-30 08:33 | 46.51311 | 8.99535 | 22926 ft | 410 kts | 356° |
| 2026-04-30 08:33 | 46.54170 | 8.99152 | 23346 ft | 413 kts | 356° |
| 2026-04-30 08:34 | 46.57047 | 8.98765 | 23768 ft | 415 kts | 356° |
| 2026-04-30 08:34 | 46.59897 | 8.98382 | 24105 ft | 419 kts | 356° |
| 2026-04-30 08:34 | 46.62806 | 8.97988 | 24454 ft | 421 kts | 356° |
| 2026-04-30 08:34 | 46.65726 | 8.97588 | 24868 ft | 422 kts | 357° |
| 2026-04-30 08:35 | 46.68659 | 8.97185 | 25256 ft | 424 kts | 357° |
| 2026-04-30 08:35 | 46.71599 | 8.96781 | 25601 ft | 426 kts | 357° |
| 2026-04-30 08:35 | 46.74560 | 8.96376 | 25893 ft | 429 kts | 357° |
| 2026-04-30 08:35 | 46.77558 | 8.95964 | 26169 ft | 432 kts | 357° |
| 2026-04-30 08:36 | 46.80528 | 8.95556 | 26456 ft | 435 kts | 357° |
| 2026-04-30 08:36 | 46.83547 | 8.95139 | 26790 ft | 436 kts | 358° |
| 2026-04-30 08:36 | 46.86576 | 8.94721 | 27150 ft | 438 kts | 358° |
| 2026-04-30 08:36 | 46.89617 | 8.94303 | 27439 ft | 440 kts | 358° |
| 2026-04-30 08:37 | 46.92672 | 8.93890 | 27708 ft | 442 kts | 358° |
| 2026-04-30 08:37 | 46.95752 | 8.93479 | 28002 ft | 444 kts | 358° |
| 2026-04-30 08:37 | 46.98840 | 8.93068 | 28303 ft | 445 kts | 358° |
| 2026-04-30 08:37 | 47.01924 | 8.92656 | 28708 ft | 444 kts | 358° |
| 2026-04-30 08:38 | 47.04958 | 8.92247 | 29217 ft | 441 kts | 359° |
| 2026-04-30 08:38 | 47.08014 | 8.91836 | 29645 ft | 440 kts | 359° |
| 2026-04-30 08:38 | 47.11063 | 8.91426 | 30008 ft | 441 kts | 359° |
| 2026-04-30 08:38 | 47.14116 | 8.91015 | 30374 ft | 440 kts | 359° |
| 2026-04-30 08:39 | 47.17165 | 8.90598 | 30723 ft | 439 kts | 359° |
| 2026-04-30 08:39 | 47.20201 | 8.90165 | 31103 ft | 437 kts | 358° |
| 2026-04-30 08:39 | 47.23220 | 8.89729 | 31474 ft | 435 kts | 358° |
| 2026-04-30 08:39 | 47.26226 | 8.89299 | 31822 ft | 434 kts | 359° |
| 2026-04-30 08:40 | 47.29223 | 8.89213 | 32166 ft | 427 kts | 7° |
| 2026-04-30 08:40 | 47.32146 | 8.89792 | 32524 ft | 422 kts | 15° |
| 2026-04-30 08:40 | 47.35005 | 8.90748 | 32847 ft | 420 kts | 15° |
| 2026-04-30 08:40 | 47.37854 | 8.91727 | 33114 ft | 420 kts | 15° |
| 2026-04-30 08:41 | 47.40706 | 8.92709 | 33395 ft | 420 kts | 15° |
| 2026-04-30 08:41 | 47.43552 | 8.93678 | 33699 ft | 419 kts | 15° |
| 2026-04-30 08:41 | 47.46401 | 8.94639 | 34017 ft | 418 kts | 15° |
| 2026-04-30 08:41 | 47.49235 | 8.95587 | 34282 ft | 418 kts | 15° |
| 2026-04-30 08:42 | 47.52086 | 8.96539 | 34250 ft | 421 kts | 15° |
| 2026-04-30 08:42 | 47.57759 | 8.98428 | 34257 ft | 418 kts | 15° |
| 2026-04-30 08:43 | 47.63406 | 9.00309 | 34259 ft | 414 kts | 15° |
| 2026-04-30 08:43 | 47.69021 | 9.02185 | 34264 ft | 412 kts | 15° |
| 2026-04-30 08:44 | 47.74573 | 9.04046 | 34263 ft | 411 kts | 16° |
| 2026-04-30 08:44 | 47.80146 | 9.05919 | 34276 ft | 411 kts | 15° |
| 2026-04-30 08:45 | 47.85746 | 9.07804 | 34282 ft | 413 kts | 15° |
| 2026-04-30 08:45 | 47.91376 | 9.09704 | 34272 ft | 415 kts | 16° |
| 2026-04-30 08:46 | 47.97029 | 9.11615 | 34283 ft | 418 kts | 16° |
| 2026-04-30 08:46 | 48.02715 | 9.13541 | 34282 ft | 419 kts | 16° |
| 2026-04-30 08:47 | 48.08417 | 9.15478 | 34272 ft | 421 kts | 16° |
| 2026-04-30 08:47 | 48.14093 | 9.17410 | 34292 ft | 421 kts | 16° |
| 2026-04-30 08:48 | 48.19820 | 9.19292 | 34281 ft | 422 kts | 15° |
| 2026-04-30 08:48 | 48.25583 | 9.20974 | 34299 ft | 421 kts | 14° |
| 2026-04-30 08:49 | 48.31339 | 9.22632 | 34291 ft | 420 kts | 14° |
| 2026-04-30 08:49 | 48.37073 | 9.24309 | 34299 ft | 419 kts | 15° |
| 2026-04-30 08:50 | 48.42795 | 9.26000 | 34299 ft | 418 kts | 15° |
| 2026-04-30 08:50 | 48.48499 | 9.27695 | 34303 ft | 416 kts | 15° |
| 2026-04-30 08:51 | 48.54141 | 9.29376 | 34344 ft | 416 kts | 15° |
| 2026-04-30 08:51 | 48.59813 | 9.31070 | 34352 ft | 415 kts | 15° |
| 2026-04-30 08:52 | 48.65484 | 9.32767 | 34352 ft | 415 kts | 15° |
| 2026-04-30 08:52 | 48.71163 | 9.34471 | 34334 ft | 415 kts | 15° |
| 2026-04-30 08:53 | 48.76795 | 9.36164 | 34345 ft | 415 kts | 15° |
| 2026-04-30 08:53 | 48.82465 | 9.37872 | 34318 ft | 416 kts | 15° |
| 2026-04-30 08:54 | 48.88147 | 9.39588 | 34335 ft | 416 kts | 15° |
| 2026-04-30 08:54 | 48.93840 | 9.41311 | 34333 ft | 417 kts | 15° |
| 2026-04-30 08:55 | 48.99530 | 9.43037 | 34354 ft | 417 kts | 15° |
| 2026-04-30 08:55 | 49.05224 | 9.44769 | 34361 ft | 417 kts | 15° |
| 2026-04-30 08:56 | 49.10885 | 9.46494 | 34364 ft | 418 kts | 15° |
| 2026-04-30 08:56 | 49.16590 | 9.48237 | 34364 ft | 418 kts | 15° |
| 2026-04-30 08:57 | 49.22292 | 9.49983 | 34371 ft | 417 kts | 15° |
| 2026-04-30 08:57 | 49.27996 | 9.51733 | 34378 ft | 417 kts | 15° |
| 2026-04-30 08:58 | 49.33694 | 9.53487 | 34388 ft | 417 kts | 15° |
| 2026-04-30 08:58 | 49.39345 | 9.55230 | 34389 ft | 417 kts | 15° |
| 2026-04-30 08:59 | 49.45023 | 9.56985 | 34391 ft | 416 kts | 15° |
| 2026-04-30 08:59 | 49.50701 | 9.58744 | 34403 ft | 416 kts | 15° |
| 2026-04-30 09:00 | 49.55454 | 9.60220 | 34399 ft | 416 kts | 15° |
| 2026-04-30 09:00 | 49.61083 | 9.61972 | 34411 ft | 415 kts | 15° |
| 2026-04-30 09:01 | 49.66748 | 9.63739 | 34418 ft | 415 kts | 15° |
| 2026-04-30 09:01 | 49.72418 | 9.65512 | 34416 ft | 415 kts | 15° |
| 2026-04-30 09:02 | 49.80905 | 9.68174 | 34419 ft | 415 kts | 15° |
| 2026-04-30 09:02 | 49.86586 | 9.69962 | 34616 ft | 418 kts | 15° |
| 2026-04-30 09:03 | 49.89436 | 9.70860 | 34800 ft | 418 kts | 15° |
| 2026-04-30 09:03 | 49.92253 | 9.71749 | 35005 ft | 416 kts | 15° |
| 2026-04-30 09:03 | 49.95090 | 9.72644 | 35219 ft | 415 kts | 15° |
| 2026-04-30 09:03 | 49.97917 | 9.73537 | 35414 ft | 414 kts | 15° |
| 2026-04-30 09:04 | 50.03608 | 9.75342 | 35430 ft | 418 kts | 15° |
| 2026-04-30 09:04 | 50.09274 | 9.77139 | 35424 ft | 412 kts | 15° |
| 2026-04-30 09:05 | 50.14823 | 9.78905 | 35433 ft | 408 kts | 15° |
| 2026-04-30 09:05 | 50.20368 | 9.80676 | 35458 ft | 407 kts | 15° |
| 2026-04-30 09:06 | 50.25972 | 9.82472 | 35459 ft | 415 kts | 15° |
| 2026-04-30 09:06 | 50.31638 | 9.84288 | 35456 ft | 416 kts | 15° |
| 2026-04-30 09:07 | 50.37316 | 9.86116 | 35459 ft | 416 kts | 16° |
| 2026-04-30 09:07 | 50.42671 | 9.89332 | 35461 ft | 411 kts | 31° |
| 2026-04-30 09:08 | 50.47357 | 9.94409 | 35458 ft | 409 kts | 37° |
| 2026-04-30 09:08 | 50.51927 | 9.99704 | 35469 ft | 407 kts | 37° |
| 2026-04-30 09:09 | 50.56470 | 10.04943 | 35457 ft | 407 kts | 37° |
| 2026-04-30 09:09 | 50.61040 | 10.10197 | 35470 ft | 406 kts | 37° |
| 2026-04-30 09:10 | 50.65610 | 10.15453 | 35473 ft | 406 kts | 37° |
| 2026-04-30 09:10 | 50.70177 | 10.20718 | 35474 ft | 406 kts | 37° |
| 2026-04-30 09:11 | 50.74738 | 10.25991 | 35474 ft | 406 kts | 37° |
| 2026-04-30 09:11 | 50.79288 | 10.31265 | 35477 ft | 406 kts | 37° |
| 2026-04-30 09:12 | 50.83815 | 10.36525 | 35477 ft | 406 kts | 37° |
| 2026-04-30 09:12 | 50.88364 | 10.41821 | 35494 ft | 406 kts | 37° |
| 2026-04-30 09:13 | 50.92930 | 10.47076 | 35492 ft | 406 kts | 36° |
| 2026-04-30 09:13 | 50.97533 | 10.52260 | 35491 ft | 405 kts | 36° |
| 2026-04-30 09:14 | 51.02125 | 10.57448 | 35492 ft | 405 kts | 36° |
| 2026-04-30 09:14 | 51.06705 | 10.62652 | 35502 ft | 404 kts | 36° |
| 2026-04-30 09:15 | 51.11274 | 10.67862 | 35498 ft | 404 kts | 36° |
| 2026-04-30 09:15 | 51.15837 | 10.73076 | 35508 ft | 403 kts | 36° |
| 2026-04-30 09:16 | 51.20364 | 10.78257 | 35502 ft | 403 kts | 36° |
| 2026-04-30 09:16 | 51.24918 | 10.83467 | 35512 ft | 402 kts | 36° |
| 2026-04-30 09:17 | 51.29470 | 10.88687 | 35500 ft | 403 kts | 36° |
| 2026-04-30 09:17 | 51.34021 | 10.93921 | 35505 ft | 403 kts | 36° |
| 2026-04-30 09:18 | 51.38571 | 10.99169 | 35510 ft | 403 kts | 36° |
| 2026-04-30 09:18 | 51.43131 | 11.04440 | 35511 ft | 404 kts | 36° |
| 2026-04-30 09:19 | 51.47694 | 11.09729 | 35511 ft | 405 kts | 36° |
| 2026-04-30 09:19 | 51.52228 | 11.14998 | 35514 ft | 405 kts | 36° |
| 2026-04-30 09:20 | 51.56794 | 11.20315 | 35519 ft | 405 kts | 36° |
| 2026-04-30 09:20 | 51.61621 | 11.24977 | 35527 ft | 406 kts | 24° |
| 2026-04-30 09:21 | 51.67058 | 11.27510 | 35510 ft | 410 kts | 11° |
| 2026-04-30 09:21 | 51.72733 | 11.28595 | 35507 ft | 411 kts | 9° |
| 2026-04-30 09:22 | 51.78408 | 11.29636 | 35511 ft | 410 kts | 9° |
| 2026-04-30 09:22 | 51.84077 | 11.30726 | 35510 ft | 409 kts | 10° |
| 2026-04-30 09:23 | 51.89692 | 11.31830 | 35505 ft | 408 kts | 10° |
| 2026-04-30 09:23 | 51.95345 | 11.32948 | 35551 ft | 411 kts | 10° |
| 2026-04-30 09:24 | 51.98204 | 11.33514 | 35738 ft | 411 kts | 10° |
| 2026-04-30 09:24 | 52.01042 | 11.34075 | 36019 ft | 409 kts | 10° |
| 2026-04-30 09:24 | 52.03825 | 11.34626 | 36304 ft | 407 kts | 9° |
| 2026-04-30 09:24 | 52.06647 | 11.35040 | 36498 ft | 409 kts | 4° |
| 2026-04-30 09:25 | 52.12403 | 11.34776 | 36523 ft | 416 kts | 1° |
| 2026-04-30 09:25 | 52.18203 | 11.34333 | 36524 ft | 416 kts | 1° |
| 2026-04-30 09:26 | 52.23949 | 11.33937 | 36517 ft | 415 kts | 1° |
| 2026-04-30 09:26 | 52.29704 | 11.33579 | 36524 ft | 413 kts | 1° |
| 2026-04-30 09:27 | 52.35453 | 11.33236 | 36521 ft | 413 kts | 1° |
| 2026-04-30 09:27 | 52.41194 | 11.32896 | 36523 ft | 412 kts | 1° |
| 2026-04-30 09:28 | 52.46889 | 11.32556 | 36525 ft | 411 kts | 1° |
| 2026-04-30 09:28 | 52.52607 | 11.32214 | 36522 ft | 411 kts | 1° |
| 2026-04-30 09:29 | 52.58326 | 11.31870 | 36525 ft | 411 kts | 1° |
| 2026-04-30 09:29 | 52.64046 | 11.31526 | 36523 ft | 411 kts | 1° |
| 2026-04-30 09:30 | 52.69771 | 11.31180 | 36521 ft | 412 kts | 1° |
| 2026-04-30 09:30 | 52.75499 | 11.30833 | 36514 ft | 412 kts | 1° |
| 2026-04-30 09:31 | 52.81235 | 11.30484 | 36522 ft | 413 kts | 1° |
| 2026-04-30 09:31 | 52.86986 | 11.30134 | 36533 ft | 413 kts | 1° |
| 2026-04-30 09:32 | 52.92735 | 11.29783 | 36518 ft | 413 kts | 1° |
| 2026-04-30 09:32 | 52.98490 | 11.29431 | 36517 ft | 414 kts | 1° |
| 2026-04-30 09:33 | 53.04220 | 11.29079 | 36521 ft | 414 kts | 1° |
| 2026-04-30 09:33 | 53.09980 | 11.28725 | 36518 ft | 414 kts | 1° |
| 2026-04-30 09:34 | 53.15747 | 11.28079 | 36506 ft | 415 kts | 357° |
| 2026-04-30 09:34 | 53.21499 | 11.26990 | 36513 ft | 416 kts | 356° |
| 2026-04-30 09:35 | 53.27218 | 11.25876 | 36515 ft | 416 kts | 356° |
| 2026-04-30 09:35 | 53.32981 | 11.24792 | 36512 ft | 416 kts | 356° |
| 2026-04-30 09:36 | 53.38750 | 11.23729 | 36513 ft | 417 kts | 356° |
| 2026-04-30 09:36 | 53.44533 | 11.22668 | 36515 ft | 417 kts | 356° |
| 2026-04-30 09:37 | 53.50272 | 11.21613 | 36511 ft | 418 kts | 356° |
| 2026-04-30 09:37 | 53.56061 | 11.20546 | 36513 ft | 418 kts | 356° |
| 2026-04-30 09:38 | 53.61845 | 11.19476 | 36516 ft | 418 kts | 356° |
| 2026-04-30 09:38 | 53.67638 | 11.18401 | 36519 ft | 419 kts | 356° |
| 2026-04-30 09:39 | 53.73429 | 11.17324 | 36521 ft | 419 kts | 356° |
| 2026-04-30 09:39 | 53.79221 | 11.16244 | 36521 ft | 418 kts | 356° |
| 2026-04-30 09:40 | 53.84976 | 11.15167 | 36524 ft | 418 kts | 356° |
| 2026-04-30 09:40 | 53.90765 | 11.14081 | 36525 ft | 418 kts | 356° |
| 2026-04-30 09:41 | 53.96561 | 11.12991 | 36522 ft | 418 kts | 356° |
| 2026-04-30 09:41 | 54.02342 | 11.11901 | 36493 ft | 418 kts | 356° |
| 2026-04-30 09:42 | 54.08083 | 11.10815 | 36510 ft | 417 kts | 356° |
| 2026-04-30 09:42 | 54.13875 | 11.09717 | 36521 ft | 417 kts | 356° |
| 2026-04-30 09:43 | 54.19653 | 11.08618 | 36522 ft | 418 kts | 356° |
| 2026-04-30 09:43 | 54.25446 | 11.07513 | 36526 ft | 419 kts | 356° |
| 2026-04-30 09:44 | 54.31255 | 11.06402 | 36524 ft | 420 kts | 356° |
| 2026-04-30 09:44 | 54.37074 | 11.05286 | 36523 ft | 421 kts | 356° |
| 2026-04-30 09:45 | 54.42892 | 11.04166 | 36512 ft | 421 kts | 356° |
| 2026-04-30 09:45 | 54.48677 | 11.03050 | 36521 ft | 421 kts | 355° |
| 2026-04-30 09:46 | 54.54501 | 11.01923 | 36522 ft | 421 kts | 355° |
| 2026-04-30 09:46 | 54.60328 | 11.00793 | 36523 ft | 421 kts | 355° |
| 2026-04-30 09:47 | 54.66131 | 10.99437 | 36519 ft | 422 kts | 350° |
| 2026-04-30 09:47 | 54.70875 | 10.97467 | 36520 ft | 422 kts | 348° |
| 2026-04-30 09:48 | 54.76559 | 10.94914 | 36524 ft | 421 kts | 348° |
| 2026-04-30 09:48 | 54.82242 | 10.92394 | 36515 ft | 421 kts | 348° |
| 2026-04-30 09:49 | 54.87930 | 10.89917 | 36494 ft | 421 kts | 348° |
| 2026-04-30 09:49 | 54.93609 | 10.87461 | 36515 ft | 421 kts | 348° |
| 2026-04-30 09:50 | 54.99265 | 10.85013 | 36520 ft | 421 kts | 348° |
| 2026-04-30 09:50 | 55.04967 | 10.82537 | 36519 ft | 423 kts | 348° |
| 2026-04-30 09:51 | 55.10690 | 10.80045 | 36510 ft | 424 kts | 348° |
| 2026-04-30 09:51 | 55.16420 | 10.77541 | 36517 ft | 425 kts | 348° |
| 2026-04-30 09:52 | 55.22159 | 10.75026 | 36513 ft | 425 kts | 348° |
| 2026-04-30 09:52 | 55.27911 | 10.72497 | 36508 ft | 426 kts | 347° |
| 2026-04-30 09:53 | 55.33632 | 10.69975 | 36511 ft | 426 kts | 347° |
| 2026-04-30 09:53 | 55.39395 | 10.67427 | 36511 ft | 426 kts | 347° |
| 2026-04-30 09:54 | 55.45149 | 10.64874 | 36512 ft | 426 kts | 347° |
| 2026-04-30 09:54 | 55.50896 | 10.62318 | 36510 ft | 426 kts | 347° |
| 2026-04-30 09:55 | 55.56639 | 10.59755 | 36509 ft | 425 kts | 347° |
| 2026-04-30 09:55 | 55.62377 | 10.57187 | 36510 ft | 425 kts | 347° |
| 2026-04-30 09:56 | 55.68103 | 10.54617 | 36506 ft | 424 kts | 347° |
| 2026-04-30 09:56 | 55.73790 | 10.52057 | 36503 ft | 424 kts | 347° |
| 2026-04-30 09:57 | 55.79522 | 10.49468 | 36501 ft | 424 kts | 347° |
| 2026-04-30 09:57 | 55.85246 | 10.46875 | 36508 ft | 424 kts | 347° |
| 2026-04-30 09:58 | 55.90966 | 10.44276 | 36495 ft | 424 kts | 347° |
| 2026-04-30 09:58 | 55.96683 | 10.41671 | 36510 ft | 424 kts | 347° |
| 2026-04-30 09:59 | 56.08113 | 10.36438 | 36502 ft | 425 kts | 347° |
| 2026-04-30 10:00 | 56.16732 | 10.32471 | 36495 ft | 426 kts | 346° |
| 2026-04-30 10:01 | 56.25333 | 10.28493 | 36498 ft | 427 kts | 346° |
| 2026-04-30 10:02 | 56.33993 | 10.24470 | 36493 ft | 429 kts | 346° |
| 2026-04-30 10:02 | 56.39784 | 10.21768 | 36496 ft | 430 kts | 346° |
| 2026-04-30 10:03 | 56.45594 | 10.19050 | 36489 ft | 430 kts | 346° |
| 2026-04-30 10:03 | 56.51372 | 10.16338 | 36483 ft | 431 kts | 346° |
| 2026-04-30 10:04 | 56.57190 | 10.13598 | 36486 ft | 431 kts | 346° |
| 2026-04-30 10:04 | 56.62993 | 10.10857 | 36496 ft | 431 kts | 346° |
| 2026-04-30 10:05 | 56.68754 | 10.08127 | 36482 ft | 430 kts | 346° |
| 2026-04-30 10:05 | 56.74545 | 10.05375 | 36484 ft | 430 kts | 346° |
| 2026-04-30 10:06 | 56.80341 | 10.02610 | 36489 ft | 430 kts | 346° |
| 2026-04-30 10:06 | 56.86122 | 9.99844 | 36480 ft | 429 kts | 346° |
| 2026-04-30 10:07 | 56.91901 | 9.97071 | 36483 ft | 429 kts | 345° |
| 2026-04-30 10:07 | 56.97669 | 9.94294 | 36487 ft | 429 kts | 345° |
| 2026-04-30 10:08 | 57.03404 | 9.91524 | 36487 ft | 429 kts | 345° |
| 2026-04-30 10:08 | 57.09183 | 9.88724 | 36485 ft | 430 kts | 345° |
| 2026-04-30 10:09 | 57.14980 | 9.85905 | 36468 ft | 430 kts | 345° |
| 2026-04-30 10:09 | 57.20767 | 9.83083 | 36474 ft | 430 kts | 345° |
| 2026-04-30 10:10 | 57.26560 | 9.80249 | 36488 ft | 431 kts | 345° |
| 2026-04-30 10:10 | 57.32314 | 9.77424 | 36480 ft | 431 kts | 345° |
| 2026-04-30 10:11 | 57.38106 | 9.74571 | 36492 ft | 430 kts | 345° |
| 2026-04-30 10:11 | 57.43903 | 9.71707 | 36477 ft | 430 kts | 345° |
| 2026-04-30 10:12 | 57.49680 | 9.68843 | 36482 ft | 429 kts | 345° |
| 2026-04-30 10:12 | 57.55456 | 9.65970 | 36469 ft | 429 kts | 345° |
| 2026-04-30 10:13 | 57.61180 | 9.63114 | 36464 ft | 428 kts | 344° |
| 2026-04-30 10:13 | 57.66945 | 9.60228 | 36461 ft | 428 kts | 344° |
| 2026-04-30 10:14 | 57.72699 | 9.57337 | 36473 ft | 427 kts | 344° |
| 2026-04-30 10:14 | 57.81324 | 9.52987 | 36464 ft | 427 kts | 344° |
| 2026-04-30 10:15 | 57.87068 | 9.50078 | 36454 ft | 428 kts | 344° |
| 2026-04-30 10:15 | 57.92785 | 9.47173 | 36451 ft | 428 kts | 344° |
| 2026-04-30 10:16 | 57.98540 | 9.44239 | 36446 ft | 429 kts | 344° |
| 2026-04-30 10:17 | 58.07245 | 9.40172 | 36445 ft | 430 kts | 346° |
| 2026-04-30 10:17 | 58.15993 | 9.36250 | 36439 ft | 431 kts | 346° |
| 2026-04-30 10:18 | 58.21794 | 9.33605 | 36439 ft | 431 kts | 346° |
| 2026-04-30 10:19 | 58.30556 | 9.29574 | 36419 ft | 432 kts | 346° |
| 2026-04-30 10:19 | 58.36402 | 9.26873 | 36440 ft | 432 kts | 346° |
| 2026-04-30 10:20 | 58.42253 | 9.24160 | 36433 ft | 432 kts | 346° |
| 2026-04-30 10:20 | 58.51001 | 9.20088 | 36431 ft | 433 kts | 346° |
| 2026-04-30 10:21 | 58.56847 | 9.17354 | 36420 ft | 432 kts | 346° |
| 2026-04-30 10:21 | 58.62693 | 9.14612 | 36417 ft | 432 kts | 346° |
| 2026-04-30 10:22 | 58.68539 | 9.11859 | 36257 ft | 435 kts | 346° |
| 2026-04-30 10:22 | 58.71499 | 9.10462 | 35703 ft | 439 kts | 345° |
| 2026-04-30 10:22 | 58.74456 | 9.09064 | 35074 ft | 438 kts | 345° |
| 2026-04-30 10:23 | 58.77427 | 9.07657 | 34449 ft | 437 kts | 345° |
| 2026-04-30 10:23 | 58.80374 | 9.06296 | 33907 ft | 434 kts | 348° |
| 2026-04-30 10:23 | 58.83330 | 9.06093 | 33422 ft | 432 kts | 7° |
| 2026-04-30 10:23 | 58.86227 | 9.07512 | 32997 ft | 429 kts | 20° |
| 2026-04-30 10:24 | 58.88842 | 9.10243 | 32579 ft | 427 kts | 34° |
| 2026-04-30 10:24 | 58.91190 | 9.13742 | 32139 ft | 424 kts | 36° |
| 2026-04-30 10:24 | 58.93471 | 9.17340 | 31692 ft | 421 kts | 37° |
| 2026-04-30 10:24 | 58.95729 | 9.20944 | 31255 ft | 417 kts | 37° |
| 2026-04-30 10:25 | 58.97968 | 9.24494 | 30823 ft | 414 kts | 37° |
| 2026-04-30 10:25 | 59.00197 | 9.27994 | 30402 ft | 411 kts | 36° |
| 2026-04-30 10:25 | 59.02417 | 9.31455 | 29899 ft | 408 kts | 36° |
| 2026-04-30 10:25 | 59.04619 | 9.34876 | 29460 ft | 403 kts | 36° |
| 2026-04-30 10:26 | 59.06801 | 9.38266 | 29014 ft | 399 kts | 36° |
| 2026-04-30 10:26 | 59.08960 | 9.41622 | 28584 ft | 395 kts | 36° |
| 2026-04-30 10:26 | 59.11095 | 9.44948 | 28157 ft | 391 kts | 36° |
| 2026-04-30 10:26 | 59.13183 | 9.48204 | 27727 ft | 388 kts | 36° |
| 2026-04-30 10:27 | 59.15280 | 9.51481 | 27298 ft | 385 kts | 36° |
| 2026-04-30 10:27 | 59.17361 | 9.54740 | 26878 ft | 382 kts | 36° |
| 2026-04-30 10:27 | 59.19447 | 9.57918 | 26463 ft | 379 kts | 33° |
| 2026-04-30 10:27 | 59.21620 | 9.60802 | 26041 ft | 375 kts | 30° |
| 2026-04-30 10:28 | 59.23811 | 9.63544 | 25636 ft | 373 kts | 30° |
| 2026-04-30 10:28 | 59.25989 | 9.66262 | 25313 ft | 369 kts | 30° |
| 2026-04-30 10:28 | 59.28116 | 9.68961 | 25176 ft | 359 kts | 30° |
| 2026-04-30 10:28 | 59.30182 | 9.71616 | 25024 ft | 350 kts | 30° |
| 2026-04-30 10:29 | 59.32173 | 9.74174 | 24866 ft | 341 kts | 28° |
| 2026-04-30 10:29 | 59.34301 | 9.76021 | 24602 ft | 331 kts | 13° |
| 2026-04-30 10:29 | 59.36537 | 9.77211 | 24304 ft | 328 kts | 12° |
| 2026-04-30 10:29 | 59.38735 | 9.78379 | 23975 ft | 327 kts | 13° |
| 2026-04-30 10:30 | 59.40897 | 9.79541 | 23599 ft | 325 kts | 13° |
| 2026-04-30 10:30 | 59.43072 | 9.80726 | 23244 ft | 323 kts | 13° |
| 2026-04-30 10:30 | 59.45229 | 9.81915 | 22914 ft | 320 kts | 13° |
| 2026-04-30 10:30 | 59.47362 | 9.83097 | 22569 ft | 317 kts | 13° |
| 2026-04-30 10:31 | 59.49480 | 9.84276 | 22242 ft | 315 kts | 13° |
| 2026-04-30 10:31 | 59.51581 | 9.85449 | 21927 ft | 313 kts | 13° |
| 2026-04-30 10:31 | 59.53670 | 9.86618 | 21596 ft | 311 kts | 13° |
| 2026-04-30 10:31 | 59.55750 | 9.87784 | 21282 ft | 309 kts | 13° |
| 2026-04-30 10:32 | 59.57782 | 9.88925 | 20962 ft | 307 kts | 13° |
| 2026-04-30 10:32 | 59.59837 | 9.90080 | 20644 ft | 305 kts | 13° |
| 2026-04-30 10:32 | 59.61873 | 9.91225 | 20337 ft | 303 kts | 13° |
| 2026-04-30 10:32 | 59.63898 | 9.92366 | 20027 ft | 302 kts | 13° |
| 2026-04-30 10:33 | 59.65916 | 9.93504 | 19717 ft | 300 kts | 13° |
| 2026-04-30 10:33 | 59.67921 | 9.94628 | 19414 ft | 299 kts | 13° |
| 2026-04-30 10:33 | 59.69915 | 9.95740 | 19109 ft | 297 kts | 13° |
| 2026-04-30 10:33 | 59.71906 | 9.96852 | 18814 ft | 296 kts | 13° |
| 2026-04-30 10:34 | 59.73888 | 9.97960 | 18484 ft | 295 kts | 13° |
| 2026-04-30 10:34 | 59.75868 | 9.99069 | 18154 ft | 294 kts | 13° |
| 2026-04-30 10:34 | 59.77832 | 10.00171 | 17828 ft | 293 kts | 13° |
| 2026-04-30 10:34 | 59.79761 | 10.01255 | 17524 ft | 291 kts | 13° |
| 2026-04-30 10:35 | 59.81704 | 10.02348 | 17216 ft | 289 kts | 13° |
| 2026-04-30 10:35 | 59.83632 | 10.03434 | 16914 ft | 287 kts | 13° |
| 2026-04-30 10:35 | 59.85556 | 10.04519 | 16611 ft | 286 kts | 13° |
| 2026-04-30 10:35 | 59.87468 | 10.05597 | 16311 ft | 284 kts | 13° |
| 2026-04-30 10:36 | 59.88727 | 10.06308 | 16121 ft | 283 kts | 13° |
| 2026-04-30 10:36 | 59.90625 | 10.07382 | 15826 ft | 285 kts | 13° |
| 2026-04-30 10:36 | 59.92540 | 10.08465 | 15535 ft | 288 kts | 13° |
| 2026-04-30 10:36 | 59.94488 | 10.09571 | 15236 ft | 294 kts | 13° |
| 2026-04-30 10:37 | 59.96476 | 10.10707 | 14905 ft | 298 kts | 14° |
| 2026-04-30 10:37 | 59.98471 | 10.11854 | 14593 ft | 298 kts | 14° |
| 2026-04-30 10:37 | 60.00460 | 10.12998 | 14278 ft | 297 kts | 14° |
| 2026-04-30 10:37 | 60.03092 | 10.14515 | 13814 ft | 297 kts | 14° |
| 2026-04-30 10:38 | 60.04402 | 10.15271 | 13587 ft | 296 kts | 14° |
| 2026-04-30 10:38 | 60.06371 | 10.16407 | 13265 ft | 293 kts | 13° |
| 2026-04-30 10:38 | 60.08328 | 10.17535 | 12966 ft | 292 kts | 13° |
| 2026-04-30 10:38 | 60.10280 | 10.18663 | 12652 ft | 291 kts | 13° |
| 2026-04-30 10:39 | 60.12224 | 10.19787 | 12329 ft | 290 kts | 13° |
| 2026-04-30 10:39 | 60.14161 | 10.20910 | 12012 ft | 289 kts | 13° |
| 2026-04-30 10:39 | 60.16089 | 10.22029 | 11702 ft | 288 kts | 13° |
| 2026-04-30 10:39 | 60.18012 | 10.23144 | 11398 ft | 287 kts | 13° |
| 2026-04-30 10:40 | 60.19931 | 10.24258 | 11090 ft | 286 kts | 13° |
| 2026-04-30 10:40 | 60.21815 | 10.25354 | 10788 ft | 285 kts | 12° |
| 2026-04-30 10:40 | 60.23717 | 10.26461 | 10565 ft | 282 kts | 12° |
| 2026-04-30 10:40 | 60.25575 | 10.27545 | 10429 ft | 274 kts | 12° |
| 2026-04-30 10:41 | 60.27396 | 10.28607 | 10192 ft | 272 kts | 12° |
| 2026-04-30 10:41 | 60.29212 | 10.29666 | 9889 ft | 271 kts | 12° |
| 2026-04-30 10:41 | 60.31022 | 10.30724 | 9610 ft | 271 kts | 12° |
| 2026-04-30 10:41 | 60.32829 | 10.31790 | 9418 ft | 271 kts | 14° |
| 2026-04-30 10:42 | 60.34608 | 10.33205 | 9373 ft | 276 kts | 20° |
| 2026-04-30 10:42 | 60.36345 | 10.34826 | 9375 ft | 274 kts | 21° |
| 2026-04-30 10:42 | 60.38079 | 10.36464 | 9371 ft | 275 kts | 21° |
| 2026-04-30 10:42 | 60.39819 | 10.38085 | 9361 ft | 275 kts | 21° |
| 2026-04-30 10:43 | 60.41557 | 10.39681 | 9353 ft | 274 kts | 20° |
| 2026-04-30 10:43 | 60.43293 | 10.41263 | 9353 ft | 271 kts | 20° |
| 2026-04-30 10:43 | 60.44992 | 10.42812 | 9345 ft | 265 kts | 20° |
| 2026-04-30 10:43 | 60.46626 | 10.44264 | 9335 ft | 253 kts | 15° |
| 2026-04-30 10:44 | 60.48299 | 10.44997 | 9362 ft | 241 kts | 4° |
| 2026-04-30 10:44 | 60.49950 | 10.45492 | 9362 ft | 240 kts | 5° |
| 2026-04-30 10:44 | 60.51622 | 10.46029 | 9365 ft | 245 kts | 5° |
| 2026-04-30 10:44 | 60.53325 | 10.46575 | 9353 ft | 248 kts | 5° |
| 2026-04-30 10:45 | 60.55024 | 10.47152 | 9360 ft | 247 kts | 6° |
| 2026-04-30 10:45 | 60.56722 | 10.47761 | 9361 ft | 249 kts | 8° |
| 2026-04-30 10:45 | 60.58330 | 10.49043 | 9357 ft | 256 kts | 27° |
| 2026-04-30 10:45 | 60.59860 | 10.50917 | 9358 ft | 257 kts | 26° |
| 2026-04-30 10:46 | 60.61406 | 10.52730 | 9350 ft | 257 kts | 26° |
| 2026-04-30 10:46 | 60.62960 | 10.54537 | 9355 ft | 257 kts | 26° |
| 2026-04-30 10:46 | 60.64510 | 10.56340 | 9362 ft | 256 kts | 26° |
| 2026-04-30 10:46 | 60.66058 | 10.58141 | 9346 ft | 256 kts | 26° |
| 2026-04-30 10:47 | 60.67490 | 10.60311 | 9340 ft | 260 kts | 45° |
| 2026-04-30 10:47 | 60.68641 | 10.63166 | 9360 ft | 260 kts | 47° |
| 2026-04-30 10:47 | 60.69796 | 10.66023 | 9350 ft | 261 kts | 46° |
| 2026-04-30 10:47 | 60.70965 | 10.68857 | 9364 ft | 261 kts | 46° |
| 2026-04-30 10:48 | 60.72138 | 10.71682 | 9355 ft | 260 kts | 46° |
| 2026-04-30 10:48 | 60.73292 | 10.74456 | 9355 ft | 259 kts | 46° |
| 2026-04-30 10:48 | 60.74342 | 10.77472 | 9346 ft | 263 kts | 63° |
| 2026-04-30 10:48 | 60.75024 | 10.80936 | 9366 ft | 263 kts | 66° |
| 2026-04-30 10:49 | 60.75688 | 10.84423 | 9363 ft | 264 kts | 70° |
| 2026-04-30 10:49 | 60.75838 | 10.88156 | 9357 ft | 266 kts | 102° |
| 2026-04-30 10:49 | 60.75069 | 10.91573 | 9269 ft | 269 kts | 131° |
| 2026-04-30 10:49 | 60.73572 | 10.93828 | 9041 ft | 270 kts | 160° |
| 2026-04-30 10:50 | 60.71790 | 10.95006 | 8795 ft | 268 kts | 168° |
| 2026-04-30 10:50 | 60.70015 | 10.95944 | 8555 ft | 266 kts | 169° |
| 2026-04-30 10:50 | 60.68231 | 10.96860 | 8315 ft | 263 kts | 169° |
| 2026-04-30 10:50 | 60.66454 | 10.97781 | 8080 ft | 261 kts | 168° |
| 2026-04-30 10:51 | 60.64706 | 10.98701 | 7857 ft | 258 kts | 168° |
| 2026-04-30 10:51 | 60.62974 | 10.99622 | 7645 ft | 257 kts | 168° |
| 2026-04-30 10:51 | 60.61252 | 11.00545 | 7405 ft | 254 kts | 168° |
| 2026-04-30 10:51 | 60.59554 | 11.01462 | 7192 ft | 251 kts | 168° |
| 2026-04-30 10:52 | 60.57895 | 11.02355 | 6975 ft | 248 kts | 168° |
| 2026-04-30 10:52 | 60.56231 | 11.03253 | 6767 ft | 246 kts | 168° |
| 2026-04-30 10:52 | 60.54575 | 11.04147 | 6542 ft | 245 kts | 168° |
| 2026-04-30 10:52 | 60.52932 | 11.05035 | 6343 ft | 245 kts | 168° |
| 2026-04-30 10:53 | 60.51289 | 11.05922 | 6104 ft | 242 kts | 168° |
| 2026-04-30 10:53 | 60.49669 | 11.06797 | 5919 ft | 240 kts | 168° |
| 2026-04-30 10:53 | 60.48065 | 11.07666 | 5700 ft | 238 kts | 168° |
| 2026-04-30 10:53 | 60.46489 | 11.08734 | 5442 ft | 242 kts | 151° |
| 2026-04-30 10:54 | 60.45208 | 11.10996 | 5183 ft | 245 kts | 136° |
| 2026-04-30 10:54 | 60.44023 | 11.13421 | 4893 ft | 246 kts | 137° |
| 2026-04-30 10:54 | 60.42809 | 11.15837 | 4748 ft | 240 kts | 137° |
| 2026-04-30 10:54 | 60.41643 | 11.18146 | 4656 ft | 233 kts | 137° |
| 2026-04-30 10:55 | 60.40321 | 11.19927 | 4428 ft | 229 kts | 168° |
| 2026-04-30 10:55 | 60.38792 | 11.19726 | 4189 ft | 221 kts | 205° |
| 2026-04-30 10:55 | 60.37383 | 11.18394 | 3873 ft | 225 kts | 202° |
| 2026-04-30 10:55 | 60.35920 | 11.17418 | 3600 ft | 217 kts | 197° |
| 2026-04-30 10:56 | 60.34496 | 11.16606 | 3311 ft | 208 kts | 197° |
| 2026-04-30 10:56 | 60.33158 | 11.15841 | 3038 ft | 198 kts | 196° |
| 2026-04-30 10:56 | 60.31882 | 11.15108 | 2772 ft | 183 kts | 196° |
| 2026-04-30 10:56 | 60.30696 | 11.14431 | 2536 ft | 173 kts | 197° |
| 2026-04-30 10:57 | 60.29583 | 11.13778 | 2324 ft | 159 kts | 195° |
| 2026-04-30 10:57 | 60.28538 | 11.13255 | 2163 ft | 152 kts | 195° |
| 2026-04-30 10:57 | 60.27543 | 11.12616 | 1934 ft | 149 kts | 196° |
| 2026-04-30 10:57 | 60.26558 | 11.12029 | 1725 ft | 149 kts | 195° |
| 2026-04-30 10:58 | 60.25566 | 11.11454 | 1506 ft | 147 kts | 195° |
| 2026-04-30 10:58 | 60.24593 | 11.10903 | 1303 ft | 147 kts | 195° |
| 2026-04-30 10:58 | 60.23616 | 11.10342 | 1156 ft | 145 kts | 196° |
| 2026-04-30 10:58 | 60.22641 | 11.09759 | 926 ft | 146 kts | 195° |
| 2026-04-30 10:59 | 60.21669 | 11.09191 | 746 ft | 141 kts | 194° |
| 2026-04-30 10:59 | 60.20761 | 11.08689 | 683 ft | 122 kts | 198° |
| 2026-04-30 10:59 | 60.20106 | 11.08304 | 679 ft | 55 kts | 196° |
| 2026-04-30 10:59 | 60.19851 | 11.08159 | 681 ft | 26 kts | 195° |
| 2026-04-30 11:00 | 60.19705 | 11.08099 | 681 ft | 12 kts | 181° |
| 2026-04-30 11:00 | 60.19625 | 11.08133 | 681 ft | 12 kts | 157° |
| 2026-04-30 11:00 | 60.19587 | 11.08201 | 681 ft | 0 kts | 120° |
| 2026-04-30 11:00 | 60.19586 | 11.08203 | 681 ft | 3 kts | 117° |
| 2026-04-30 11:01 | 60.19567 | 11.08312 | 684 ft | 9 kts | 109° |
| 2026-04-30 11:01 | 60.19547 | 11.08436 | 681 ft | 9 kts | 107° |
| 2026-04-30 11:01 | 60.19528 | 11.08558 | 684 ft | 9 kts | 104° |
| 2026-04-30 11:01 | 60.19513 | 11.08679 | 687 ft | 8 kts | 106° |
| 2026-04-30 11:02 | 60.19478 | 11.08719 | 685 ft | 6 kts | 186° |
| 2026-04-30 11:02 | 60.19435 | 11.08701 | 688 ft | 6 kts | 195° |
| 2026-04-30 11:02 | 60.19424 | 11.08695 | 687 ft | 0 kts | 195° |